Time;durP1;ratioP1;P1;durP2;ratioP2;P2;SDS_P1;SDS_P2;PMS_P1;PMS_P2;Temp;Humidity;BMP_temperature;BMP_pressure;BME280_temperature;BME280_humidity;BME280_pressure;Samples;Min_cycle;Max_cycle;Signal;HPM_P1;HPM_P2
2022/12/24 05:04:28;;;;;;;6.70;1.38;;;10.30;99.90;;;;;;5610021;23;20680;-71
2022/12/24 05:06:53;;;;;;;2.40;1.20;;;10.30;99.90;;;;;;4975584;28;20274;-72
2022/12/24 05:09:19;;;;;;;1.60;1.13;;;10.30;99.90;;;;;;4975853;28;20207;-72
2022/12/24 05:11:44;;;;;;;3.13;0.83;;;10.30;99.90;;;;;;4958399;28;20573;-70
2022/12/24 05:14:10;;;;;;;1.57;1.47;;;10.30;99.90;;;;;;4975332;28;20218;-71
2022/12/24 05:16:37;;;;;;;2.30;1.37;;;10.30;99.90;;;;;;4975946;28;20176;-71
2022/12/24 05:19:03;;;;;;;3.47;1.20;;;10.30;99.90;;;;;;4975802;28;20172;-71
2022/12/24 05:21:28;;;;;;;3.10;1.10;;;10.30;99.90;;;;;;4975968;28;20219;-71
2022/12/24 05:26:51;;;;;;;3.60;1.50;;;10.10;99.90;;;;;;4975788;28;20635;-71
2022/12/24 05:29:17;;;;;;;1.33;0.77;;;10.10;99.90;;;;;;4975861;28;20176;-71
2022/12/24 05:31:44;;;;;;;4.47;1.40;;;10.10;99.90;;;;;;4975615;28;20531;-71
2022/12/24 05:34:10;;;;;;;1.30;1.20;;;10.00;99.90;;;;;;4974058;28;21040;-71
2022/12/24 05:36:36;;;;;;;0.80;0.80;;;10.00;99.90;;;;;;4975509;28;20175;-71
2022/12/24 05:39:02;;;;;;;2.10;1.10;;;10.00;99.90;;;;;;4975615;28;20180;-71
2022/12/24 05:41:28;;;;;;;5.25;1.73;;;9.90;99.90;;;;;;4975151;28;20203;-72
2022/12/24 05:43:54;;;;;;;2.73;0.93;;;9.80;99.90;;;;;;4974849;28;20184;-70
2022/12/24 05:46:21;;;;;;;1.42;1.33;;;9.80;99.90;;;;;;4975375;28;20549;-71
2022/12/24 05:48:48;;;;;;;2.67;1.05;;;9.80;99.90;;;;;;4975005;28;20206;-72
2022/12/24 05:51:18;;;;;;;1.38;1.25;;;9.80;99.90;;;;;;4975260;28;20176;-71
2022/12/24 05:53:45;;;;;;;6.80;1.90;;;9.80;99.90;;;;;;4974509;28;20191;-72
2022/12/24 05:56:20;;;;;;;3.00;1.05;;;9.80;99.90;;;;;;4975036;28;20172;-71
2022/12/24 05:58:46;;;;;;;1.83;1.73;;;9.80;99.90;;;;;;4975130;28;20176;-71
2022/12/24 06:01:12;;;;;;;6.43;2.03;;;9.80;99.90;;;;;;4974898;28;20199;-71
2022/12/24 06:03:38;;;;;;;6.63;4.78;;;9.70;99.90;;;;;;4974466;28;20168;-71
2022/12/24 06:06:13;;;;;;;1.65;1.10;;;9.70;99.90;;;;;;4982856;28;20298;-72
2022/12/24 06:08:39;;;;;;;4.07;1.20;;;9.70;99.90;;;;;;4993631;28;20224;-70
2022/12/24 06:11:08;;;;;;;1.38;0.93;;;9.70;99.90;;;;;;5004293;28;20190;-71
2022/12/24 06:13:34;;;;;;;3.45;1.50;;;9.70;99.90;;;;;;5012480;28;20186;-72
2022/12/24 06:16:01;;;;;;;2.13;1.20;;;9.70;99.90;;;;;;4955266;28;20550;-71
2022/12/24 06:18:31;;;;;;;0.93;0.93;;;9.70;99.90;;;;;;4994104;28;20178;-71
2022/12/24 06:20:57;;;;;;;4.72;1.55;;;9.70;99.90;;;;;;4993984;28;20716;-71
2022/12/24 06:23:23;;;;;;;1.10;0.88;;;9.70;99.90;;;;;;4993460;28;20254;-71
2022/12/24 06:25:49;;;;;;;2.83;1.10;;;9.70;99.90;;;;;;4976497;28;20651;-71
2022/12/24 06:28:15;;;;;;;2.13;1.67;;;9.80;99.90;;;;;;4993911;28;20621;-71
2022/12/24 06:30:45;;;;;;;1.40;1.20;;;9.80;99.90;;;;;;4993383;28;20237;-71
2022/12/24 06:33:11;;;;;;;1.20;1.05;;;9.80;99.90;;;;;;4990777;28;20179;-71
2022/12/24 06:35:37;;;;;;;1.03;1.00;;;9.80;99.90;;;;;;4993771;28;20195;-71
2022/12/24 06:38:02;;;;;;;1.47;0.90;;;9.80;99.90;;;;;;4993775;28;20230;-71
2022/12/24 06:40:28;;;;;;;1.67;0.80;;;9.80;99.90;;;;;;4993766;28;20223;-71
2022/12/24 06:42:53;;;;;;;2.60;1.40;;;9.90;99.90;;;;;;4993880;28;20180;-71
2022/12/24 06:45:19;;;;;;;1.37;1.27;;;9.80;99.90;;;;;;4993649;28;20265;-71
2022/12/24 06:47:45;;;;;;;1.30;1.20;;;9.90;99.90;;;;;;4993621;28;20579;-71
2022/12/24 06:50:10;;;;;;;1.00;0.97;;;9.90;99.90;;;;;;4993501;28;20269;-70
2022/12/24 06:52:37;;;;;;;4.00;1.47;;;9.80;99.90;;;;;;4981054;28;20309;-66
2022/12/24 06:55:03;;;;;;;1.27;1.25;;;9.90;99.90;;;;;;4994935;28;20198;-70
2022/12/24 06:57:30;;;;;;;1.88;0.95;;;9.80;99.90;;;;;;4996490;28;20684;-70
2022/12/24 06:59:56;;;;;;;7.93;1.50;;;9.80;99.90;;;;;;4993261;28;20186;-71
2022/12/24 07:02:23;;;;;;;5.10;1.38;;;9.80;99.90;;;;;;4993374;28;20171;-69
2022/12/24 07:04:48;;;;;;;2.25;1.52;;;9.90;99.90;;;;;;4992825;28;20202;-68
2022/12/24 07:07:14;;;;;;;1.03;0.83;;;9.90;99.90;;;;;;4993606;28;20171;-67
2022/12/24 07:09:40;;;;;;;3.43;0.77;;;9.90;99.90;;;;;;4980350;28;20477;-68
2022/12/24 07:12:05;;;;;;;1.57;1.00;;;10.00;99.90;;;;;;4979919;28;20207;-66
2022/12/24 07:14:31;;;;;;;2.43;0.77;;;10.00;99.90;;;;;;4964705;28;20212;-68
2022/12/24 07:16:57;;;;;;;2.10;1.13;;;10.10;99.90;;;;;;4934861;29;20670;-67
2022/12/24 07:19:23;;;;;;;0.53;0.53;;;10.20;99.90;;;;;;4935807;29;20182;-66
2022/12/24 07:21:49;;;;;;;2.10;1.17;;;10.20;99.90;;;;;;4939040;29;20666;-67
2022/12/24 07:24:15;;;;;;;1.40;1.30;;;10.30;99.90;;;;;;4938691;29;20493;-66
2022/12/24 07:26:40;;;;;;;2.35;2.25;;;10.40;99.90;;;;;;4938788;29;20418;-67
2022/12/24 07:29:06;;;;;;;2.20;1.73;;;10.40;99.90;;;;;;4938812;29;20183;-67
2022/12/24 07:31:32;;;;;;;0.93;0.93;;;10.40;99.90;;;;;;4939054;29;20632;-67
2022/12/24 07:33:57;;;;;;;2.00;1.07;;;10.40;99.90;;;;;;4938010;29;20190;-69
2022/12/24 07:36:24;;;;;;;2.63;0.77;;;10.40;99.90;;;;;;4942081;29;20189;-64
2022/12/24 07:38:50;;;;;;;2.67;1.10;;;10.40;99.90;;;;;;4957160;28;20218;-63
2022/12/24 07:41:15;;;;;;;6.50;1.20;;;10.40;99.90;;;;;;4953926;28;20682;-63
2022/12/24 07:43:41;;;;;;;1.03;0.90;;;10.30;99.90;;;;;;4955229;28;20213;-63
2022/12/24 07:46:07;;;;;;;0.90;0.80;;;10.30;99.90;;;;;;4948582;28;20168;-63
2022/12/24 07:48:32;;;;;;;2.90;2.10;;;10.30;99.90;;;;;;4938314;29;20213;-63
2022/12/24 07:50:58;;;;;;;4.73;1.77;;;10.30;99.90;;;;;;4921350;29;20429;-65
2022/12/24 07:53:26;;;;;;;5.30;1.30;;;10.30;99.90;;;;;;4937800;29;20173;-65
2022/12/24 07:55:52;;;;;;;3.35;1.58;;;10.30;99.90;;;;;;4921141;29;20181;-65
2022/12/24 07:58:18;;;;;;;1.03;1.00;;;10.30;99.90;;;;;;4938398;29;20184;-64
2022/12/24 08:00:44;;;;;;;5.00;0.93;;;10.20;99.90;;;;;;4938213;29;20456;-65
2022/12/24 08:03:17;;;;;;;7.67;1.50;;;10.30;99.90;;;;;;4937871;29;20174;-65
2022/12/24 08:05:42;;;;;;;1.70;1.60;;;10.30;99.90;;;;;;4938163;29;20212;-64
2022/12/24 08:08:08;;;;;;;3.60;1.27;;;10.30;99.90;;;;;;4937063;28;20173;-68
2022/12/24 08:10:33;;;;;;;2.50;1.40;;;10.40;99.90;;;;;;4954596;28;20187;-67
2022/12/24 08:12:59;;;;;;;2.83;1.97;;;10.40;99.90;;;;;;4957010;28;20638;-66
2022/12/24 08:15:25;;;;;;;4.50;2.00;;;10.40;99.90;;;;;;4967424;28;20268;-70
2022/12/24 08:17:50;;;;;;;5.70;2.83;;;10.40;99.90;;;;;;4976487;28;20627;-66
2022/12/24 08:20:16;;;;;;;3.07;2.23;;;10.50;99.90;;;;;;4976187;28;20235;-66
2022/12/24 08:22:42;;;;;;;3.83;3.53;;;10.50;99.90;;;;;;4975921;28;20188;-68
2022/12/24 08:25:09;;;;;;;2.07;1.93;;;10.50;99.90;;;;;;4974718;28;20279;-67
2022/12/24 08:27:35;;;;;;;5.57;1.73;;;10.50;99.90;;;;;;4976257;28;20418;-67
2022/12/24 08:30:01;;;;;;;4.10;1.80;;;10.50;99.90;;;;;;4975856;28;20522;-69
2022/12/24 08:32:26;;;;;;;3.00;1.75;;;10.60;99.90;;;;;;4976266;28;20410;-66
2022/12/24 08:34:52;;;;;;;1.37;1.30;;;10.70;99.90;;;;;;4975549;28;20192;-68
2022/12/24 08:37:17;;;;;;;7.70;1.83;;;10.70;99.90;;;;;;4975789;28;20584;-68
2022/12/24 08:39:43;;;;;;;1.30;1.10;;;10.80;99.90;;;;;;4974816;28;20174;-70
2022/12/24 08:42:09;;;;;;;2.53;1.70;;;10.90;99.90;;;;;;4975826;28;20217;-69
2022/12/24 08:44:34;;;;;;;1.07;0.90;;;11.00;99.90;;;;;;4975439;28;20187;-68
2022/12/24 08:47:00;;;;;;;1.00;0.80;;;11.00;99.90;;;;;;4975917;28;20650;-69
2022/12/24 08:49:25;;;;;;;1.73;1.50;;;11.10;99.90;;;;;;4963700;28;20191;-69
2022/12/24 08:51:51;;;;;;;4.50;2.23;;;11.10;99.90;;;;;;4957605;28;20185;-67
2022/12/24 08:54:17;;;;;;;8.30;3.03;;;11.10;99.90;;;;;;4957258;28;20201;-68
2022/12/24 08:56:43;;;;;;;6.00;2.93;;;11.10;99.90;;;;;;4965113;28;20184;-69
2022/12/24 08:59:10;;;;;;;4.80;2.50;;;11.20;99.90;;;;;;4971484;28;20923;-69
2022/12/24 09:01:36;;;;;;;2.10;1.77;;;11.20;99.90;;;;;;4975355;28;20211;-73
2022/12/24 09:04:01;;;;;;;1.70;1.30;;;11.10;99.90;;;;;;4971816;28;20759;-71
2022/12/24 09:06:27;;;;;;;3.03;2.33;;;11.10;99.90;;;;;;4975550;28;20191;-72
2022/12/24 09:08:52;;;;;;;4.80;1.10;;;11.10;99.90;;;;;;4975608;28;20181;-69
2022/12/24 09:11:19;;;;;;;1.37;0.90;;;11.10;99.90;;;;;;4971017;28;20640;-69
2022/12/24 09:13:45;;;;;;;4.05;1.60;;;11.10;99.90;;;;;;4974939;28;20197;-70
2022/12/24 09:16:11;;;;;;;5.90;2.30;;;11.10;99.90;;;;;;4974765;28;20670;-69
2022/12/24 09:18:37;;;;;;;1.47;1.23;;;11.10;99.90;;;;;;4971499;28;20190;-63
2022/12/24 09:21:06;;;;;;;5.50;1.20;;;11.20;99.90;;;;;;4975074;28;20459;-68
2022/12/24 09:23:34;;;;;;;3.73;1.43;;;11.30;99.90;;;;;;4969401;28;20438;-66
2022/12/24 09:26:04;;;;;;;2.30;2.10;;;11.40;99.90;;;;;;4972851;28;20428;-66
2022/12/24 09:28:30;;;;;;;3.70;1.80;;;11.50;99.90;;;;;;4954011;28;20987;-65
2022/12/24 09:30:58;;;;;;;4.93;2.47;;;11.70;99.90;;;;;;4974940;28;20509;-70
2022/12/24 09:33:23;;;;;;;2.63;1.50;;;11.80;99.90;;;;;;4974510;28;20188;-70
2022/12/24 09:35:52;;;;;;;4.37;1.70;;;12.10;99.90;;;;;;4971087;28;20477;-70
2022/12/24 09:38:19;;;;;;;4.60;4.03;;;12.60;99.90;;;;;;4974756;28;20191;-72
2022/12/24 09:40:45;;;;;;;2.73;1.43;;;13.10;99.90;;;;;;4974644;28;20483;-72
2022/12/24 09:43:17;;;;;;;0.80;0.80;;;13.50;99.90;;;;;;4973686;28;20429;-68
2022/12/24 09:45:47;;;;;;;5.23;1.43;;;13.90;99.90;;;;;;4974811;28;20189;-67
2022/12/24 09:48:20;;;;;;;3.47;2.00;;;14.50;99.90;;;;;;4974822;28;20398;-67
2022/12/24 09:50:54;;;;;;;2.10;1.33;;;15.10;99.90;;;;;;4974730;28;20434;-68
2022/12/24 09:53:26;;;;;;;2.13;1.93;;;15.60;99.90;;;;;;4974290;28;20896;-66
2022/12/24 09:55:57;;;;;;;1.17;1.10;;;16.00;99.90;;;;;;4974366;28;20416;-67
2022/12/24 09:58:40;;;;;;;4.40;1.10;;;16.40;99.90;;;;;;4974636;28;20469;-67
2022/12/24 10:01:12;;;;;;;3.90;1.60;;;16.80;99.90;;;;;;4974557;28;20437;-67
2022/12/24 10:03:38;;;;;;;3.07;2.10;;;17.30;99.90;;;;;;4973966;28;20422;-68
2022/12/24 10:06:13;;;;;;;2.27;1.57;;;17.70;99.90;;;;;;4974157;28;20409;-69
2022/12/24 10:08:38;;;;;;;5.63;1.50;;;18.10;99.90;;;;;;4974421;28;20787;-69
2022/12/24 10:11:14;;;;;;;2.43;1.20;;;18.40;99.90;;;;;;4974573;28;20475;-68
2022/12/24 10:14:00;;;;;;;1.23;1.10;;;18.50;99.90;;;;;;4973991;28;20262;-68
2022/12/24 10:16:49;;;;;;;1.40;1.27;;;18.40;99.40;;;;;;4974033;28;20504;-69
2022/12/24 10:19:50;;;;;;;3.23;1.30;;;18.30;99.60;;;;;;4972883;28;20391;-69
2022/12/24 10:22:34;;;;;;;3.20;1.33;;;18.30;99.60;;;;;;4942559;28;20489;-72
2022/12/24 10:25:15;;;;;;;2.47;1.13;;;18.50;99.70;;;;;;4954529;29;20407;-69
2022/12/24 10:27:40;;;;;;;2.77;1.50;;;18.70;98.90;;;;;;4967589;28;20448;-69
2022/12/24 10:30:18;;;;;;;1.33;1.23;;;18.80;99.00;;;;;;4973664;28;20951;-69
2022/12/24 10:32:47;;;;;;;5.13;1.10;;;18.80;97.70;;;;;;4968772;28;20937;-70
2022/12/24 10:35:16;;;;;;;4.80;1.90;;;18.40;97.90;;;;;;4974190;28;20452;-69
2022/12/24 10:37:43;;;;;;;2.60;1.50;;;17.90;98.20;;;;;;4974343;28;20375;-69
2022/12/24 10:40:38;;;;;;;3.50;1.10;;;17.40;99.00;;;;;;4969908;28;20978;-68
2022/12/24 10:43:19;;;;;;;2.50;1.27;;;16.70;99.90;;;;;;4951799;28;20402;-73
2022/12/24 10:45:48;;;;;;;1.90;1.10;;;15.80;99.90;;;;;;4959489;28;20415;-71
2022/12/24 10:48:41;;;;;;;1.33;1.23;;;15.40;99.90;;;;;;4953520;28;20388;-73
2022/12/24 10:51:23;;;;;;;1.33;1.03;;;14.90;99.90;;;;;;4962131;28;20513;-69
2022/12/24 10:53:55;;;;;;;1.00;0.90;;;14.60;99.90;;;;;;4974429;28;20439;-70
2022/12/24 10:56:21;;;;;;;3.27;1.97;;;14.40;99.90;;;;;;4973705;28;20855;-64
2022/12/24 10:58:54;;;;;;;1.93;1.33;;;14.30;99.90;;;;;;4958567;29;20424;-69
2022/12/24 11:01:40;;;;;;;3.07;2.20;;;14.20;99.90;;;;;;4966301;28;20205;-71
2022/12/24 11:04:13;;;;;;;3.53;2.00;;;14.00;99.90;;;;;;4977423;28;20440;-71
2022/12/24 11:06:54;;;;;;;4.90;1.70;;;13.90;99.90;;;;;;4977804;28;20400;-69
2022/12/24 11:09:27;;;;;;;1.23;1.03;;;13.70;99.90;;;;;;4960341;28;20419;-72
2022/12/24 11:11:58;;;;;;;6.07;1.97;;;13.70;99.90;;;;;;4977829;28;20405;-73
2022/12/24 11:14:26;;;;;;;2.17;1.17;;;13.60;99.90;;;;;;4977131;28;20417;-73
2022/12/24 11:16:54;;;;;;;3.40;1.83;;;13.50;99.90;;;;;;4977871;28;20763;-70
2022/12/24 11:19:28;;;;;;;1.53;1.30;;;13.50;99.90;;;;;;4972625;28;20405;-70
2022/12/24 11:22:03;;;;;;;3.40;1.67;;;13.40;99.90;;;;;;4966885;28;20461;-75
2022/12/24 11:24:38;;;;;;;2.13;1.23;;;13.30;99.90;;;;;;4959993;28;20469;-72
2022/12/24 11:27:37;;;;;;;1.30;1.20;;;13.20;99.90;;;;;;4957995;29;20404;-69
2022/12/24 11:30:35;;;;;;;2.17;1.33;;;13.10;99.90;;;;;;4965511;28;20506;-72
2022/12/24 11:33:01;;;;;;;3.20;1.33;;;13.10;99.90;;;;;;4917610;29;20392;-70
2022/12/24 11:35:30;;;;;;;1.40;1.00;;;13.00;99.90;;;;;;4917748;29;20522;-74
2022/12/24 11:38:02;;;;;;;3.80;1.20;;;13.10;99.90;;;;;;4917658;29;20449;-73
2022/12/24 11:40:38;;;;;;;3.60;1.30;;;13.00;99.90;;;;;;4916945;29;20540;-74
2022/12/24 11:43:04;;;;;;;2.10;1.13;;;13.10;99.90;;;;;;4916691;29;20439;-73
2022/12/24 11:45:32;;;;;;;1.80;1.20;;;13.00;99.90;;;;;;4917923;29;20441;-71
2022/12/24 11:47:58;;;;;;;2.97;1.20;;;12.90;99.90;;;;;;4917545;29;20501;-72
2022/12/24 11:50:35;;;;;;;2.37;1.50;;;12.80;99.90;;;;;;4917017;29;20930;-71
2022/12/24 11:53:48;;;;;;;2.00;1.10;;;12.70;99.90;;;;;;4917442;29;20535;-73
2022/12/24 11:56:42;;;;;;;4.10;1.53;;;12.80;99.90;;;;;;4913783;29;20914;-72
2022/12/24 11:59:16;;;;;;;4.77;1.43;;;12.80;99.90;;;;;;4912637;29;20816;-71
2022/12/24 12:02:13;;;;;;;3.57;1.33;;;12.70;99.90;;;;;;4917704;29;20474;-70
2022/12/24 12:04:41;;;;;;;2.87;1.47;;;12.70;99.90;;;;;;4916744;29;20436;-71
2022/12/24 12:07:23;;;;;;;1.60;1.23;;;12.80;99.90;;;;;;4917453;29;20520;-72
2022/12/24 12:09:55;;;;;;;1.63;1.43;;;12.80;99.90;;;;;;4934599;29;20420;-73
2022/12/24 12:12:27;;;;;;;1.47;1.37;;;12.80;99.90;;;;;;4957595;29;20722;-73
2022/12/24 12:15:03;;;;;;;4.00;1.30;;;12.90;99.90;;;;;;4939903;29;20463;-71
2022/12/24 12:17:32;;;;;;;3.57;1.60;;;12.90;99.90;;;;;;4957834;29;20399;-72
2022/12/24 12:20:23;;;;;;;2.40;1.37;;;12.80;99.90;;;;;;4957571;29;20409;-75
2022/12/24 12:23:22;;;;;;;4.60;2.17;;;12.80;99.90;;;;;;4955453;28;20427;-72
2022/12/24 12:25:54;;;;;;;2.63;2.00;;;12.80;99.90;;;;;;4975992;28;20450;-70
2022/12/24 12:28:27;;;;;;;2.87;1.63;;;12.70;99.90;;;;;;4976373;28;20486;-71
2022/12/24 12:31:08;;;;;;;4.53;2.00;;;12.60;99.90;;;;;;4976860;28;20417;-71
2022/12/24 12:34:03;;;;;;;3.87;1.50;;;12.50;99.90;;;;;;4976315;28;20442;-71
2022/12/24 12:36:56;;;;;;;3.07;2.67;;;12.40;99.90;;;;;;4943466;28;20980;-73
2022/12/24 12:39:22;;;;;;;5.07;3.47;;;12.40;99.90;;;;;;4979371;28;20505;-71
2022/12/24 12:41:57;;;;;;;2.67;2.47;;;12.30;99.90;;;;;;4977758;28;20428;-70
2022/12/24 12:44:36;;;;;;;6.83;2.30;;;12.30;99.90;;;;;;4978951;28;20548;-72
2022/12/24 12:47:15;;;;;;;2.70;2.30;;;12.30;99.90;;;;;;4987272;28;20420;-71
2022/12/24 12:49:53;;;;;;;2.50;1.93;;;12.30;99.90;;;;;;4983629;28;20801;-71
2022/12/24 12:52:47;;;;;;;3.10;1.70;;;12.20;99.90;;;;;;4977790;28;20531;-71
2022/12/24 12:55:29;;;;;;;5.50;1.67;;;12.10;99.90;;;;;;4960884;29;20451;-71
2022/12/24 12:58:03;;;;;;;3.20;2.00;;;12.10;99.90;;;;;;4959065;29;20403;-71
2022/12/24 13:00:33;;;;;;;4.53;2.00;;;12.20;99.90;;;;;;4958087;29;20450;-71
2022/12/24 13:03:22;;;;;;;2.57;1.87;;;12.10;99.90;;;;;;4956667;29;20407;-71
2022/12/24 13:06:18;;;;;;;4.40;2.23;;;12.10;99.90;;;;;;4957242;29;20408;-71
2022/12/24 13:09:32;;;;;;;2.23;2.03;;;12.10;99.90;;;;;;4968381;28;20461;-71
2022/12/24 13:12:13;;;;;;;3.60;2.73;;;12.20;99.90;;;;;;4980839;28;20410;-71
2022/12/24 13:15:18;;;;;;;3.73;2.50;;;12.20;99.90;;;;;;4977852;28;20484;-71
2022/12/24 13:17:49;;;;;;;10.40;2.97;;;12.20;99.90;;;;;;4957950;28;20850;-71
2022/12/24 13:20:28;;;;;;;1.80;1.70;;;12.20;99.90;;;;;;4957134;29;20806;-71
2022/12/24 13:23:09;;;;;;;5.40;2.43;;;12.20;99.90;;;;;;4961977;28;20452;-71
2022/12/24 13:25:38;;;;;;;3.87;2.63;;;12.30;99.90;;;;;;4975387;28;20452;-71
2022/12/24 13:28:31;;;;;;;4.93;2.60;;;12.30;99.90;;;;;;4974833;28;20475;-71
2022/12/24 13:31:18;;;;;;;3.90;1.40;;;12.30;99.90;;;;;;4954885;28;20947;-71
2022/12/24 13:33:46;;;;;;;3.50;2.10;;;12.20;99.90;;;;;;4957458;28;20968;-71
2022/12/24 13:36:15;;;;;;;3.37;2.23;;;12.20;99.90;;;;;;4975462;28;20406;-72
2022/12/24 13:38:46;;;;;;;2.43;1.67;;;12.20;99.90;;;;;;4975113;28;20949;-72
2022/12/24 13:41:30;;;;;;;3.50;2.13;;;12.20;99.90;;;;;;4975237;28;20462;-72
2022/12/24 13:44:14;;;;;;;4.53;2.30;;;12.20;99.90;;;;;;4974682;28;20891;-71
2022/12/24 13:46:57;;;;;;;10.23;2.17;;;12.20;99.90;;;;;;4975217;28;20403;-71
2022/12/24 13:49:26;;;;;;;5.83;2.20;;;12.10;99.90;;;;;;4975017;28;20418;-72
2022/12/24 13:52:10;;;;;;;5.20;2.80;;;12.10;99.90;;;;;;4975426;28;20907;-73
2022/12/24 13:55:04;;;;;;;5.63;2.50;;;12.10;99.90;;;;;;4975191;28;20788;-71
2022/12/24 13:57:38;;;;;;;3.43;2.10;;;12.00;99.90;;;;;;4976198;28;20489;-72
2022/12/24 14:00:19;;;;;;;4.30;2.87;;;12.00;99.90;;;;;;4975417;28;20385;-72
2022/12/24 14:02:54;;;;;;;3.90;2.90;;;11.90;99.90;;;;;;4957154;28;20433;-72
2022/12/24 14:05:25;;;;;;;2.20;2.00;;;11.90;99.90;;;;;;4974970;28;20950;-73
2022/12/24 14:07:51;;;;;;;10.10;1.90;;;11.90;99.90;;;;;;4957373;28;20422;-71
2022/12/24 14:10:34;;;;;;;2.47;1.60;;;11.80;99.90;;;;;;4974980;28;20382;-72
2022/12/24 14:13:00;;;;;;;4.80;1.90;;;11.80;99.90;;;;;;4956781;28;20804;-71
2022/12/24 14:15:44;;;;;;;5.03;2.23;;;11.70;99.90;;;;;;4955809;28;20439;-72
2022/12/24 14:18:15;;;;;;;5.40;2.10;;;11.70;99.90;;;;;;4974523;28;20189;-71
2022/12/24 14:20:42;;;;;;;5.47;3.97;;;11.60;99.90;;;;;;4974671;28;20438;-71
2022/12/24 14:23:26;;;;;;;3.60;2.00;;;11.60;99.90;;;;;;4974292;28;20401;-72
2022/12/24 14:25:52;;;;;;;2.80;2.23;;;11.60;99.90;;;;;;4957342;28;20413;-71
2022/12/24 14:28:22;;;;;;;4.53;2.30;;;11.60;99.90;;;;;;4973484;28;20425;-72
2022/12/24 14:30:59;;;;;;;3.13;2.20;;;11.60;99.90;;;;;;4957882;28;20277;-72
2022/12/24 14:33:33;;;;;;;6.30;2.37;;;11.60;99.90;;;;;;4974186;28;20399;-71
2022/12/24 14:36:00;;;;;;;2.10;1.80;;;11.70;99.90;;;;;;4957108;28;20938;-73
2022/12/24 14:38:26;;;;;;;4.47;1.83;;;11.60;99.90;;;;;;4957311;28;20493;-71
2022/12/24 14:41:12;;;;;;;2.77;1.70;;;11.60;99.90;;;;;;4974379;28;20453;-71
2022/12/24 14:43:53;;;;;;;7.97;3.55;;;11.60;99.90;;;;;;4953026;28;20437;-73
2022/12/24 14:47:00;;;;;;;6.67;3.50;;;11.60;99.90;;;;;;4974841;28;20173;-72
2022/12/24 14:49:53;;;;;;;3.80;2.33;;;11.60;99.90;;;;;;4915217;29;20825;-70
2022/12/24 14:52:27;;;;;;;2.90;2.47;;;11.50;99.90;;;;;;4898539;29;20968;-72
2022/12/24 14:54:52;;;;;;;6.40;4.37;;;11.60;99.90;;;;;;4913715;29;20562;-72
2022/12/24 14:57:24;;;;;;;6.83;2.80;;;11.50;99.90;;;;;;4915032;29;20487;-72
2022/12/24 14:59:56;;;;;;;5.77;3.03;;;11.50;99.90;;;;;;4914719;29;20196;-72
2022/12/24 15:02:44;;;;;;;5.70;2.53;;;11.40;99.90;;;;;;4914449;29;20464;-72
2022/12/24 15:05:18;;;;;;;4.72;2.35;;;11.40;99.90;;;;;;4914860;29;20518;-72
2022/12/24 15:07:49;;;;;;;4.43;2.90;;;11.30;99.90;;;;;;4913867;29;20190;-72
2022/12/24 15:10:24;;;;;;;4.40;2.80;;;11.20;99.90;;;;;;4914533;29;20176;-72
2022/12/24 15:12:50;;;;;;;4.03;2.10;;;11.20;99.90;;;;;;4914268;29;20259;-71
2022/12/24 15:15:17;;;;;;;3.15;1.95;;;11.20;99.90;;;;;;4913951;29;20450;-71
2022/12/24 15:17:44;;;;;;;10.05;3.22;;;11.10;99.90;;;;;;4914656;29;20179;-71
2022/12/24 15:20:15;;;;;;;5.33;3.27;;;11.10;99.90;;;;;;4929079;28;20289;-71
2022/12/24 15:22:42;;;;;;;2.80;2.50;;;11.00;99.90;;;;;;4956633;28;20423;-71
2022/12/24 15:25:37;;;;;;;3.67;2.40;;;11.00;99.90;;;;;;4973894;28;20272;-71
2022/12/24 15:28:02;;;;;;;6.63;2.80;;;10.90;99.90;;;;;;4965161;28;20934;-70
2022/12/24 15:30:29;;;;;;;3.70;3.30;;;10.80;99.90;;;;;;4974095;28;20185;-72
2022/12/24 15:32:56;;;;;;;5.43;3.72;;;10.70;99.90;;;;;;4973285;28;20211;-71
2022/12/24 15:35:55;;;;;;;4.47;3.58;;;10.70;99.90;;;;;;4973899;28;20192;-72
2022/12/24 15:38:30;;;;;;;4.45;4.05;;;10.60;99.90;;;;;;4962587;28;20196;-71
2022/12/24 15:40:57;;;;;;;9.75;3.20;;;10.60;99.90;;;;;;4975401;28;20204;-72
2022/12/24 15:43:24;;;;;;;5.93;4.07;;;10.60;99.90;;;;;;4976972;28;20191;-72
2022/12/24 15:45:50;;;;;;;4.63;3.17;;;10.60;99.90;;;;;;4977693;28;20184;-72
2022/12/24 15:48:26;;;;;;;5.50;3.70;;;10.60;99.90;;;;;;4959990;28;20227;-72
2022/12/24 15:50:55;;;;;;;5.72;3.92;;;10.60;99.90;;;;;;4960208;28;20483;-72
2022/12/24 15:53:34;;;;;;;4.45;3.08;;;10.60;99.90;;;;;;4976391;28;20542;-72
2022/12/24 15:56:30;;;;;;;4.20;3.30;;;10.60;99.90;;;;;;4977281;28;20178;-71
2022/12/24 15:59:31;;;;;;;6.60;3.03;;;10.60;99.90;;;;;;4977161;28;20410;-72
2022/12/24 16:02:16;;;;;;;2.95;2.55;;;10.50;99.90;;;;;;4959805;28;20203;-72
2022/12/24 16:04:42;;;;;;;4.22;3.53;;;10.50;99.90;;;;;;4976206;28;20204;-72
2022/12/24 16:07:22;;;;;;;7.90;4.37;;;10.50;99.90;;;;;;4976943;28;20165;-70
2022/12/24 16:09:48;;;;;;;7.53;4.50;;;10.40;99.90;;;;;;4957607;29;20183;-72
2022/12/24 16:12:24;;;;;;;4.67;3.77;;;10.30;99.90;;;;;;4957825;28;20173;-72
2022/12/24 16:14:56;;;;;;;5.85;4.03;;;10.30;99.90;;;;;;4975513;28;20586;-72
2022/12/24 16:17:28;;;;;;;4.63;4.25;;;10.30;99.90;;;;;;4976347;28;20172;-72
2022/12/24 16:19:59;;;;;;;12.32;9.30;;;10.30;99.90;;;;;;4976554;28;20183;-72
2022/12/24 16:22:30;;;;;;;8.30;6.43;;;10.30;99.90;;;;;;4976857;28;20222;-71
2022/12/24 16:25:01;;;;;;;6.07;5.07;;;10.30;99.90;;;;;;4976325;28;20651;-72
2022/12/24 16:27:26;;;;;;;7.20;5.18;;;10.30;99.90;;;;;;4976442;28;20197;-72
2022/12/24 16:29:52;;;;;;;10.67;6.37;;;10.30;99.90;;;;;;4959195;28;20263;-72
2022/12/24 16:32:31;;;;;;;5.80;5.17;;;10.30;99.90;;;;;;4976500;28;20855;-72
2022/12/24 16:34:57;;;;;;;4.88;4.38;;;10.30;99.90;;;;;;4975778;28;20210;-72
2022/12/24 16:37:22;;;;;;;6.50;5.30;;;10.30;99.90;;;;;;4976258;28;20586;-70
2022/12/24 16:39:49;;;;;;;6.33;4.50;;;10.30;99.90;;;;;;4976708;28;20177;-72
2022/12/24 16:44:59;;;;;;;8.30;5.65;;;10.30;99.90;;;;;;4976226;28;20195;-72
2022/12/24 16:47:29;;;;;;;8.80;3.60;;;10.30;99.90;;;;;;4976550;28;20260;-72
2022/12/24 16:49:56;;;;;;;8.43;4.70;;;10.30;99.90;;;;;;4976282;28;20581;-72
2022/12/24 16:52:25;;;;;;;8.50;4.50;;;10.30;99.90;;;;;;4975804;28;20237;-72
2022/12/24 16:54:51;;;;;;;3.53;3.22;;;10.30;99.90;;;;;;4975678;28;20595;-73
2022/12/24 16:57:17;;;;;;;3.22;2.92;;;10.30;99.90;;;;;;4976155;28;20223;-72
2022/12/24 16:59:43;;;;;;;6.20;3.78;;;10.30;99.90;;;;;;4975854;28;20253;-72
2022/12/24 17:02:15;;;;;;;5.10;3.00;;;10.40;99.90;;;;;;4976013;28;20292;-72
2022/12/24 17:04:41;;;;;;;4.30;3.53;;;10.40;99.90;;;;;;4975201;28;20235;-72
2022/12/24 17:07:07;;;;;;;4.83;4.40;;;10.40;99.90;;;;;;4975873;28;20216;-72
2022/12/24 17:09:32;;;;;;;5.43;3.43;;;10.40;99.90;;;;;;4975780;28;20444;-72
2022/12/24 17:11:58;;;;;;;6.50;4.40;;;10.40;99.90;;;;;;4975966;28;20237;-71
2022/12/24 17:14:25;;;;;;;5.60;4.53;;;10.40;99.90;;;;;;4974776;28;20666;-71
2022/12/24 17:16:50;;;;;;;8.00;5.53;;;10.40;99.90;;;;;;4975842;28;20184;-72
2022/12/24 17:19:16;;;;;;;5.10;4.50;;;10.40;99.90;;;;;;4975672;28;20265;-72
2022/12/24 17:21:42;;;;;;;6.77;4.90;;;10.40;99.90;;;;;;4957892;28;20562;-71
2022/12/24 17:24:08;;;;;;;5.85;3.85;;;10.30;99.90;;;;;;4975065;28;20431;-71
2022/12/24 17:26:35;;;;;;;11.93;5.77;;;10.40;99.90;;;;;;4975251;28;20219;-71
2022/12/24 17:29:03;;;;;;;3.85;3.40;;;10.30;99.90;;;;;;4958217;28;20404;-72
2022/12/24 17:31:31;;;;;;;8.65;4.32;;;10.30;99.90;;;;;;4975474;28;20173;-72
2022/12/24 17:33:57;;;;;;;4.30;3.92;;;10.30;99.90;;;;;;4974684;28;20188;-72
2022/12/24 17:36:23;;;;;;;4.50;3.80;;;10.30;99.90;;;;;;4974699;28;20195;-72
2022/12/24 17:38:49;;;;;;;4.75;3.92;;;10.30;99.90;;;;;;4975278;28;20189;-72
2022/12/24 17:41:17;;;;;;;5.77;3.50;;;10.30;99.90;;;;;;4975071;28;20184;-72
2022/12/24 17:43:43;;;;;;;5.95;4.03;;;10.30;99.90;;;;;;4974867;28;20195;-72
2022/12/24 17:46:15;;;;;;;6.73;5.37;;;10.30;99.90;;;;;;4975128;28;20176;-72
2022/12/24 17:48:42;;;;;;;4.40;3.95;;;10.30;99.90;;;;;;4957610;28;20816;-71
2022/12/24 17:51:10;;;;;;;10.15;4.18;;;10.20;99.90;;;;;;4957704;28;20547;-72
2022/12/24 17:53:39;;;;;;;3.95;3.60;;;10.30;99.90;;;;;;4974536;28;20173;-72
2022/12/24 17:56:05;;;;;;;6.07;4.50;;;10.20;99.90;;;;;;4957413;28;20264;-71
2022/12/24 17:58:31;;;;;;;10.10;4.70;;;10.20;99.90;;;;;;4974874;28;20188;-72
2022/12/24 18:00:58;;;;;;;5.17;4.43;;;10.20;99.90;;;;;;4974984;28;20192;-72
2022/12/24 18:03:24;;;;;;;4.55;3.72;;;10.20;99.90;;;;;;4974185;28;20231;-71
2022/12/24 18:05:50;;;;;;;6.50;4.75;;;10.20;99.90;;;;;;4974382;28;20180;-72
2022/12/24 18:08:17;;;;;;;5.10;4.30;;;10.20;99.90;;;;;;4974959;28;20634;-72
2022/12/24 18:10:42;;;;;;;4.25;3.90;;;10.20;99.90;;;;;;4974527;28;20188;-72
2022/12/24 18:13:09;;;;;;;5.13;4.27;;;10.20;99.90;;;;;;4974323;28;20551;-72
2022/12/24 18:15:37;;;;;;;5.10;3.85;;;10.30;99.90;;;;;;4974387;28;20208;-72
2022/12/24 18:18:03;;;;;;;5.22;3.78;;;10.20;99.90;;;;;;4974648;28;20189;-72
2022/12/24 18:20:30;;;;;;;7.70;4.15;;;10.20;99.90;;;;;;4974577;28;20243;-71